Time;durP1;ratioP1;P1;durP2;ratioP2;P2;SDS_P1;SDS_P2;PMS_P1;PMS_P2;Temp;Humidity;BMP_temperature;BMP_pressure;BME280_temperature;BME280_humidity;BME280_pressure;Samples;Min_cycle;Max_cycle;Signal;HPM_P1;HPM_P2
2021/01/13 00:01:06;;;;;;;38.20;18.35;;;;;;;-1.49;100.00;96814.66;5052608;28;20468;-77
2021/01/13 00:03:32;;;;;;;37.90;19.30;;;;;;;-1.48;100.00;96814.59;5052728;28;20049;-76
2021/01/13 00:05:58;;;;;;;34.00;16.80;;;;;;;-1.46;100.00;96823.06;5052793;28;20133;-75
2021/01/13 00:08:24;;;;;;;39.65;19.98;;;;;;;-1.42;100.00;96833.19;5052968;28;20124;-77
2021/01/13 00:10:50;;;;;;;37.75;17.42;;;;;;;-1.45;100.00;96832.44;5053478;28;20049;-77
2021/01/13 00:13:17;;;;;;;38.92;17.98;;;;;;;-1.47;100.00;96830.84;5053256;28;20049;-77
2021/01/13 00:15:43;;;;;;;34.33;18.15;;;;;;;-1.48;100.00;96840.28;5052081;28;20056;-76
2021/01/13 00:18:09;;;;;;;30.38;14.77;;;;;;;-1.40;100.00;96832.25;5052810;28;20053;-77
2021/01/13 00:20:35;;;;;;;27.80;15.27;;;;;;;-1.46;100.00;96848.75;5056223;28;20563;-77
2021/01/13 00:23:00;;;;;;;25.25;14.15;;;;;;;-1.46;100.00;96853.91;5057110;28;20106;-78
2021/01/13 00:25:26;;;;;;;24.63;14.88;;;;;;;-1.48;100.00;96847.19;5056379;28;20412;-77
2021/01/13 00:27:52;;;;;;;22.95;13.25;;;;;;;-1.45;100.00;96847.88;5057170;28;20048;-77
2021/01/13 00:30:19;;;;;;;26.52;14.50;;;;;;;-1.49;100.00;96846.31;5056342;28;20041;-77
2021/01/13 00:32:46;;;;;;;23.38;13.48;;;;;;;-1.52;100.00;96851.59;5056609;28;20044;-77
2021/01/13 00:35:14;;;;;;;25.40;14.15;;;;;;;-1.43;100.00;96867.53;5056985;28;20360;-77
2021/01/13 00:37:41;;;;;;;24.15;13.20;;;;;;;-1.40;100.00;96864.84;5056876;28;20376;-77
2021/01/13 00:40:09;;;;;;;22.63;13.63;;;;;;;-1.47;100.00;96853.97;5057059;28;20072;-76
2021/01/13 00:42:55;;;;;;;19.17;11.50;;;;;;;-1.44;100.00;96861.53;5056240;28;20051;-77
2021/01/13 00:45:21;;;;;;;22.88;13.35;;;;;;;-1.46;100.00;96873.63;5056054;28;20057;-77
2021/01/13 00:47:51;;;;;;;26.00;14.02;;;;;;;-1.51;100.00;96866.13;5055879;28;20045;-77
2021/01/13 00:50:17;;;;;;;22.00;12.45;;;;;;;-1.54;100.00;96868.00;5056288;28;20052;-77
2021/01/13 00:52:50;;;;;;;20.13;12.63;;;;;;;-1.52;100.00;96877.28;5056200;28;20127;-78
2021/01/13 00:55:17;;;;;;;18.10;11.80;;;;;;;-1.45;100.00;96873.56;5039238;28;20069;-77
2021/01/13 00:57:50;;;;;;;16.23;10.20;;;;;;;-1.48;100.00;96883.16;5038648;28;20118;-77
2021/01/13 01:00:17;;;;;;;20.40;12.07;;;;;;;-1.48;100.00;96885.72;5055758;28;20080;-77
2021/01/13 01:02:43;;;;;;;18.10;9.35;;;;;;;-1.45;100.00;96898.44;5055803;28;20048;-77
2021/01/13 01:05:09;;;;;;;13.25;8.75;;;;;;;-1.47;100.00;96903.66;5056117;28;20091;-78
2021/01/13 01:07:43;;;;;;;14.57;6.88;;;;;;;-1.53;100.00;96909.06;5055799;28;20126;-74
2021/01/13 01:10:17;;;;;;;11.85;7.25;;;;;;;-1.55;100.00;96903.13;5055812;28;20336;-77
2021/01/13 01:12:44;;;;;;;12.27;6.80;;;;;;;-1.55;100.00;96918.53;5056190;28;20053;-76
2021/01/13 01:15:10;;;;;;;8.38;5.80;;;;;;;-1.53;100.00;96924.47;5056134;28;20055;-77
2021/01/13 01:17:36;;;;;;;9.35;6.18;;;;;;;-1.54;100.00;96930.50;5055884;28;20041;-76
2021/01/13 01:20:03;;;;;;;6.70;4.50;;;;;;;-1.60;100.00;96935.91;5055197;28;20171;-76
2021/01/13 01:22:29;;;;;;;8.10;5.53;;;;;;;-1.59;100.00;96932.44;5055517;28;20041;-77
2021/01/13 01:24:55;;;;;;;6.53;4.40;;;;;;;-1.59;100.00;96940.16;5055167;28;20036;-77
2021/01/13 01:27:21;;;;;;;5.47;3.10;;;;;;;-1.71;100.00;96940.66;5055725;28;20059;-77
2021/01/13 01:29:47;;;;;;;4.82;3.33;;;;;;;-1.75;100.00;96931.38;5037231;28;20041;-77
2021/01/13 01:32:13;;;;;;;5.40;2.85;;;;;;;-1.78;100.00;96934.91;5055037;28;20059;-77
2021/01/13 01:34:39;;;;;;;4.22;2.67;;;;;;;-1.87;100.00;96940.41;5055283;28;20041;-76
2021/01/13 01:37:05;;;;;;;5.40;3.20;;;;;;;-1.90;100.00;96926.00;5055563;28;20133;-77
2021/01/13 01:39:30;;;;;;;6.13;3.90;;;;;;;-1.91;100.00;96939.72;5055302;28;20539;-77
2021/01/13 01:41:56;;;;;;;6.25;3.28;;;;;;;-1.91;100.00;96944.03;5037366;28;20462;-76
2021/01/13 01:44:22;;;;;;;5.95;3.45;;;;;;;-1.96;100.00;96938.22;5055555;28;20124;-77
2021/01/13 01:46:53;;;;;;;5.15;3.22;;;;;;;-1.94;100.00;96946.72;5055062;28;20045;-76
2021/01/13 01:49:19;;;;;;;6.10;3.35;;;;;;;-1.90;100.00;96954.25;5054930;28;20060;-77
2021/01/13 01:52:11;;;;;;;5.60;3.80;;;;;;;-1.84;100.00;96953.13;5053765;28;20057;-76
2021/01/13 01:54:55;;;;;;;5.47;3.50;;;;;;;-1.82;100.00;96959.91;5055528;28;20491;-73
2021/01/13 01:57:23;;;;;;;5.55;3.95;;;;;;;-1.80;100.00;96968.38;5065382;28;20459;-76
2021/01/13 02:00:00;;;;;;;6.57;4.40;;;;;;;-1.80;100.00;96967.53;5055760;28;20045;-77
2021/01/13 02:02:36;;;;;;;7.03;5.03;;;;;;;-1.77;100.00;96969.16;5054934;28;20041;-77
2021/01/13 02:05:04;;;;;;;8.75;5.65;;;;;;;-1.74;100.00;96958.75;5053591;28;20053;-77
2021/01/13 02:07:33;;;;;;;9.05;5.80;;;;;;;-1.84;100.00;96943.72;5055515;28;20467;-76
2021/01/13 02:10:04;;;;;;;7.53;5.85;;;;;;;-1.88;100.00;96949.03;5055332;28;20127;-78
2021/01/13 02:12:34;;;;;;;8.25;5.38;;;;;;;-1.98;100.00;96957.13;5055301;28;20064;-77
2021/01/13 02:15:04;;;;;;;7.45;4.60;;;;;;;-1.86;100.00;96967.78;5053110;28;20044;-76
2021/01/13 02:17:37;;;;;;;9.35;5.22;;;;;;;-1.82;100.00;96975.31;5020652;28;20493;-77
2021/01/13 02:20:12;;;;;;;10.25;5.72;;;;;;;-1.81;100.00;96969.28;5037829;28;20053;-77
2021/01/13 02:23:06;;;;;;;10.60;6.00;;;;;;;-1.88;100.00;96964.44;5054263;28;20140;-73
2021/01/13 02:26:22;;;;;;;9.65;6.13;;;;;;;-1.91;100.00;96959.44;5054060;28;20053;-78
2021/01/13 02:29:15;;;;;;;9.10;5.88;;;;;;;-1.82;100.00;96967.59;4992685;28;20047;-77
2021/01/13 02:31:56;;;;;;;8.77;6.30;;;;;;;-1.82;100.00;96971.91;4992905;28;20540;-72
2021/01/13 02:35:06;;;;;;;8.32;5.47;;;;;;;-1.92;100.00;96971.44;4976986;28;20054;-77
2021/01/13 02:38:04;;;;;;;9.32;6.18;;;;;;;-1.90;100.00;96964.50;4919289;29;20403;-78
2021/01/13 02:40:32;;;;;;;12.10;6.63;;;;;;;-1.94;100.00;96962.94;4934978;29;20058;-77
2021/01/13 02:43:08;;;;;;;11.43;6.68;;;;;;;-1.92;100.00;96961.16;4977556;28;20054;-77
2021/01/13 02:45:39;;;;;;;10.73;6.88;;;;;;;-1.96;100.00;96957.06;4977079;28;20102;-76
2021/01/13 02:48:13;;;;;;;10.98;6.95;;;;;;;-1.92;100.00;96956.00;4992767;28;20050;-75
2021/01/13 02:50:47;;;;;;;10.15;6.97;;;;;;;-1.84;100.00;96959.13;4992430;28;20153;-75
2021/01/13 02:53:15;;;;;;;11.77;6.90;;;;;;;-1.84;100.00;96959.13;4976249;28;20473;-76
2021/01/13 02:55:47;;;;;;;11.40;6.85;;;;;;;-1.90;100.00;96959.38;4992125;28;20050;-72
2021/01/13 02:58:35;;;;;;;9.95;6.28;;;;;;;-1.86;100.00;96968.63;4994096;28;20397;-77
2021/01/13 03:01:05;;;;;;;8.65;5.82;;;;;;;-1.89;100.00;96963.59;5053312;28;20452;-77
2021/01/13 03:03:34;;;;;;;10.10;5.70;;;;;;;-1.82;100.00;96969.34;5053929;28;20452;-77
2021/01/13 03:06:07;;;;;;;10.88;5.82;;;;;;;-1.86;100.00;96960.91;5053579;28;20124;-77
2021/01/13 03:08:45;;;;;;;12.63;6.50;;;;;;;-1.88;100.00;96962.72;5053898;28;20045;-77
2021/01/13 03:11:19;;;;;;;10.73;6.55;;;;;;;-1.86;100.00;96962.66;5053606;28;20048;-76
2021/01/13 03:13:46;;;;;;;9.82;6.45;;;;;;;-1.88;100.00;96961.88;5053827;28;20072;-76
2021/01/13 03:16:14;;;;;;;10.10;6.35;;;;;;;-1.93;100.00;96959.50;5053624;28;20053;-77
2021/01/13 03:18:55;;;;;;;12.15;7.57;;;;;;;-1.86;100.00;96966.03;5053892;28;20053;-77
2021/01/13 03:21:27;;;;;;;15.18;8.02;;;;;;;-1.85;100.00;96967.72;5053068;28;20124;-76
2021/01/13 03:23:59;;;;;;;10.25;6.47;;;;;;;-1.87;100.00;96963.53;5053853;28;20049;-77
2021/01/13 03:26:31;;;;;;;14.75;9.18;;;;;;;-1.90;100.00;96959.38;5054070;28;20379;-76
2021/01/13 03:28:58;;;;;;;11.45;7.38;;;;;;;-1.87;100.00;96966.09;5051929;28;20045;-76
2021/01/13 03:31:28;;;;;;;16.33;9.00;;;;;;;-1.86;100.00;96965.22;5052060;28;20368;-77
2021/01/13 03:34:10;;;;;;;14.48;8.77;;;;;;;-1.88;100.00;96967.03;5052600;28;20128;-77
2021/01/13 03:37:17;;;;;;;17.88;9.38;;;;;;;-1.89;100.00;96961.03;5053853;28;20094;-77
2021/01/13 03:39:44;;;;;;;13.68;6.95;;;;;;;-1.84;100.00;96964.28;5053102;28;20400;-77
2021/01/13 03:42:16;;;;;;;15.68;8.57;;;;;;;-1.81;100.00;96971.84;5053027;28;20037;-77
2021/01/13 03:44:45;;;;;;;12.35;7.72;;;;;;;-1.84;100.00;96969.41;5053671;28;20045;-77
2021/01/13 03:47:17;;;;;;;13.45;8.27;;;;;;;-1.80;100.00;96970.94;5053389;28;20049;-77
2021/01/13 03:50:36;;;;;;;14.65;9.15;;;;;;;-1.73;100.00;96975.84;5052961;28;20089;-78
2021/01/13 03:53:10;;;;;;;12.18;7.20;;;;;;;-1.78;100.00;96988.03;5024620;28;20060;-77
2021/01/13 03:55:39;;;;;;;17.95;8.75;;;;;;;-1.83;100.00;96981.34;5053095;28;20049;-77
2021/01/13 03:58:08;;;;;;;14.07;7.57;;;;;;;-1.86;100.00;96978.88;5035319;28;20041;-77
2021/01/13 04:00:55;;;;;;;14.63;7.60;;;;;;;-1.84;100.00;96981.41;5052464;28;20133;-77
2021/01/13 04:03:59;;;;;;;14.10;8.07;;;;;;;-1.90;100.00;96973.94;5052691;28;20186;-76
2021/01/13 04:06:26;;;;;;;14.57;8.48;;;;;;;-1.83;100.00;96986.47;5022052;28;20056;-77
2021/01/13 04:08:52;;;;;;;16.10;9.88;;;;;;;-1.84;100.00;96986.53;5052958;28;20411;-77
2021/01/13 04:11:22;;;;;;;16.10;9.00;;;;;;;-1.88;100.00;96982.44;5052811;28;20045;-77
2021/01/13 04:13:52;;;;;;;14.63;7.75;;;;;;;-1.82;100.00;96998.44;5052492;28;20045;-73
2021/01/13 04:16:23;;;;;;;13.38;8.20;;;;;;;-1.78;100.00;96998.31;5052843;28;20070;-77
2021/01/13 04:18:52;;;;;;;15.10;7.85;;;;;;;-1.85;100.00;97002.88;5053601;28;20072;-73
2021/01/13 04:21:21;;;;;;;12.10;7.57;;;;;;;-1.87;100.00;96995.22;5062192;28;20079;-77
2021/01/13 04:23:48;;;;;;;13.57;8.15;;;;;;;-1.80;100.00;96995.81;5052316;28;20056;-73
2021/01/13 04:26:14;;;;;;;12.43;7.80;;;;;;;-1.88;100.00;96998.66;5053238;28;20080;-77
2021/01/13 04:28:42;;;;;;;10.65;6.90;;;;;;;-1.86;100.00;97004.56;5052480;28;20056;-75
2021/01/13 04:31:08;;;;;;;11.38;6.90;;;;;;;-1.87;100.00;97002.91;5052683;28;20475;-77
2021/01/13 04:33:35;;;;;;;20.60;9.77;;;;;;;-1.86;100.00;97008.88;5052287;28;20056;-77
2021/01/13 04:36:02;;;;;;;12.50;7.72;;;;;;;-1.89;100.00;97004.69;5052677;28;20145;-77
2021/01/13 04:38:32;;;;;;;12.95;7.75;;;;;;;-1.96;100.00;96998.16;5052483;28;20076;-77
2021/01/13 04:41:15;;;;;;;12.18;7.32;;;;;;;-1.88;100.00;97020.97;5052315;28;20095;-77
2021/01/13 04:44:18;;;;;;;12.23;6.55;;;;;;;-1.92;100.00;97012.53;5052702;28;20053;-77
2021/01/13 04:46:44;;;;;;;;;;;;;;;-1.98;100.00;97011.03;4975580;28;20105;-77
2021/01/13 04:49:21;;;;;;;10.60;6.07;;;;;;;-2.03;100.00;97009.53;5026995;28;19923;-76
2021/01/13 04:51:47;;;;;;;7.55;5.15;;;;;;;-2.08;100.00;97017.41;5052855;28;20060;-76
2021/01/13 04:54:15;;;;;;;10.77;6.03;;;;;;;-2.06;100.00;97023.31;5051898;28;20383;-76
2021/01/13 04:56:44;;;;;;;11.02;5.80;;;;;;;-2.07;100.00;97021.66;5053052;28;20091;-77
2021/01/13 04:59:24;;;;;;;11.63;5.20;;;;;;;-2.04;100.00;97036.09;5052356;28;20077;-76
2021/01/13 05:02:04;;;;;;;10.40;4.80;;;;;;;-2.19;100.00;97022.97;5051373;28;20037;-74
2021/01/13 05:05:03;;;;;;;10.98;5.10;;;;;;;-2.18;100.00;97042.63;5052484;28;20047;-76
2021/01/13 05:07:41;;;;;;;9.70;4.15;;;;;;;-2.17;100.00;97043.44;5055558;28;20507;-76
2021/01/13 05:10:15;;;;;;;10.00;4.90;;;;;;;-2.18;100.00;97046.91;5038279;28;20040;-77
2021/01/13 05:12:59;;;;;;;6.40;4.18;;;;;;;-2.23;100.00;97052.19;5038579;28;20059;-76
2021/01/13 05:15:31;;;;;;;8.43;3.85;;;;;;;-2.28;100.00;97051.53;5055445;28;20069;-76
2021/01/13 05:18:13;;;;;;;6.88;3.47;;;;;;;-2.34;100.00;97036.38;5056283;28;20049;-75
2021/01/13 05:20:42;;;;;;;4.10;2.70;;;;;;;-2.28;100.00;97048.97;5056196;28;20045;-76
2021/01/13 05:23:11;;;;;;;7.13;3.33;;;;;;;-2.34;100.00;97060.28;5055137;28;20045;-76
2021/01/13 05:25:52;;;;;;;6.35;2.22;;;;;;;-2.45;100.00;97069.28;5055838;28;20074;-76
2021/01/13 05:28:25;;;;;;;4.05;1.98;;;;;;;-2.46;98.39;97072.75;5055495;28;20133;-76
2021/01/13 05:30:54;;;;;;;5.03;2.00;;;;;;;-2.57;97.39;97073.13;5055860;28;20495;-76
2021/01/13 05:33:23;;;;;;;3.00;1.52;;;;;;;-2.62;96.97;97090.41;5054893;28;20045;-76
2021/01/13 05:35:57;;;;;;;5.30;2.05;;;;;;;-2.72;97.81;97087.31;5055732;28;20049;-76
2021/01/13 05:38:38;;;;;;;3.63;1.90;;;;;;;-2.70;97.59;97095.81;5055765;28;20052;-74
2021/01/13 05:41:12;;;;;;;4.03;1.67;;;;;;;-2.74;96.93;97096.81;5054956;28;20139;-77
2021/01/13 05:43:48;;;;;;;2.28;1.38;;;;;;;-2.73;96.72;97095.91;5055214;28;20049;-77
2021/01/13 05:46:17;;;;;;;2.63;1.15;;;;;;;-2.79;95.27;97099.53;5055132;28;20455;-77
2021/01/13 05:48:53;;;;;;;3.83;1.77;;;;;;;-2.70;96.66;97106.06;5055571;28;20049;-77
2021/01/13 05:51:29;;;;;;;2.65;1.45;;;;;;;-2.80;95.09;97110.66;5055149;28;20052;-77
2021/01/13 05:53:57;;;;;;;6.40;3.03;;;;;;;-2.88;95.53;97113.47;5054568;28;20049;-72
2021/01/13 05:56:23;;;;;;;9.02;3.78;;;;;;;-2.91;96.81;97125.59;5054701;28;20052;-76
2021/01/13 05:59:07;;;;;;;5.68;3.15;;;;;;;-2.95;98.20;97124.00;5054602;28;20484;-76
2021/01/13 06:01:48;;;;;;;8.25;3.97;;;;;;;-2.88;97.72;97128.88;5054568;28;20510;-76
2021/01/13 06:04:16;;;;;;;12.88;4.43;;;;;;;-2.89;99.51;97126.34;5053786;28;20072;-76
2021/01/13 06:07:30;;;;;;;13.35;4.53;;;;;;;-2.83;99.39;97133.84;5054430;28;20140;-76
2021/01/13 06:09:56;;;;;;;;;;;;;;;-2.89;98.22;97140.03;4993668;28;20050;-74
2021/01/13 06:12:23;;;;;;;7.90;3.47;;;;;;;-2.90;98.53;97134.97;5042442;28;19931;-77
2021/01/13 06:14:54;;;;;;;11.65;3.40;;;;;;;-2.88;99.52;97139.13;5053342;28;20079;-76
2021/01/13 06:17:25;;;;;;;8.85;3.90;;;;;;;-2.85;99.44;97142.50;5054328;28;20124;-76
2021/01/13 06:19:54;;;;;;;7.07;2.85;;;;;;;-2.88;99.05;97149.38;5055006;28;20083;-70
2021/01/13 06:22:34;;;;;;;11.20;3.05;;;;;;;-2.83;98.13;97161.22;5053290;28;20456;-73
2021/01/13 06:25:05;;;;;;;7.38;3.67;;;;;;;-2.85;99.21;97163.84;5054794;28;20443;-74
2021/01/13 06:28:15;;;;;;;10.85;4.40;;;;;;;-2.86;100.00;97169.03;5054035;28;20569;-72
2021/01/13 06:30:43;;;;;;;7.65;3.50;;;;;;;-2.88;98.55;97164.78;5054867;28;20135;-71
2021/01/13 06:33:18;;;;;;;9.80;3.88;;;;;;;-2.88;98.73;97177.59;5053794;28;20071;-73
2021/01/13 06:35:45;;;;;;;9.23;4.07;;;;;;;-2.88;99.70;97169.91;5053518;28;20057;-71
2021/01/13 06:38:37;;;;;;;11.20;4.55;;;;;;;-2.93;99.77;97174.34;5053612;28;20045;-73
2021/01/13 06:41:03;;;;;;;9.23;4.68;;;;;;;-2.88;100.00;97182.72;5054507;28;20045;-73
2021/01/13 06:43:30;;;;;;;10.40;4.28;;;;;;;-2.84;100.00;97192.88;5054278;28;20449;-72
2021/01/13 06:45:56;;;;;;;10.20;4.40;;;;;;;-2.96;98.79;97183.88;5054210;28;20041;-74
2021/01/13 06:48:28;;;;;;;13.25;4.80;;;;;;;-2.85;100.00;97206.63;5054639;28;20202;-74
2021/01/13 06:50:59;;;;;;;9.50;4.82;;;;;;;-2.86;100.00;97203.19;5052750;28;20045;-73
2021/01/13 06:53:36;;;;;;;10.95;4.75;;;;;;;-2.84;100.00;97195.44;5053839;28;20053;-75
2021/01/13 06:56:14;;;;;;;10.05;4.85;;;;;;;-2.84;100.00;97204.00;5054260;28;20091;-72
2021/01/13 06:59:00;;;;;;;9.88;5.18;;;;;;;-2.86;100.00;97202.38;5054184;28;20045;-74
2021/01/13 07:01:27;;;;;;;12.27;5.60;;;;;;;-2.82;100.00;97217.63;5053872;28;20144;-74
2021/01/13 07:03:59;;;;;;;10.30;4.68;;;;;;;-2.80;100.00;97225.25;5054397;28;20044;-76
2021/01/13 07:06:25;;;;;;;12.88;5.38;;;;;;;-2.78;99.27;97229.47;5054102;28;20075;-75
2021/01/13 07:08:52;;;;;;;11.55;5.38;;;;;;;-2.70;98.67;97219.78;5052425;28;20037;-74
2021/01/13 07:11:18;;;;;;;11.32;5.07;;;;;;;-2.76;97.65;97224.28;5053186;28;20535;-76
2021/01/13 07:13:55;;;;;;;13.27;5.18;;;;;;;-2.80;96.62;97220.97;5053492;28;20053;-72
2021/01/13 07:16:26;;;;;;;11.40;4.97;;;;;;;-2.78;97.45;97232.03;5052031;28;20052;-77
2021/01/13 07:18:56;;;;;;;12.18;5.35;;;;;;;-2.68;97.45;97236.88;5054272;28;20083;-77
2021/01/13 07:21:35;;;;;;;13.02;5.70;;;;;;;-2.70;97.47;97237.75;5051891;28;20044;-77
2021/01/13 07:24:02;;;;;;;19.38;6.78;;;;;;;-2.58;98.40;97228.81;5053502;28;20399;-73
2021/01/13 07:26:29;;;;;;;11.95;6.28;;;;;;;-2.61;97.48;97239.19;5051958;28;20045;-75
2021/01/13 07:28:56;;;;;;;12.00;5.72;;;;;;;-2.50;97.42;97243.09;5051502;28;20051;-76
2021/01/13 07:31:28;;;;;;;15.68;7.10;;;;;;;-2.54;98.26;97235.50;5053666;28;20437;-78
2021/01/13 07:34:05;;;;;;;11.85;6.20;;;;;;;-2.58;97.33;97246.78;5053048;28;20045;-78
2021/01/13 07:36:36;;;;;;;13.95;6.22;;;;;;;-2.52;97.75;97233.75;5035414;28;20485;-77
2021/01/13 07:39:06;;;;;;;15.75;6.30;;;;;;;-2.42;97.45;97229.13;5053471;28;20045;-73
2021/01/13 07:42:04;;;;;;;13.93;5.20;;;;;;;-2.40;97.05;97241.91;5052806;28;20056;-78
2021/01/13 07:44:45;;;;;;;15.73;6.07;;;;;;;-2.55;97.12;97228.72;5054112;28;20049;-77
2021/01/13 07:48:05;;;;;;;13.32;6.38;;;;;;;-2.44;97.96;97232.63;5052716;28;20453;-77
2021/01/13 07:50:33;;;;;;;17.25;7.43;;;;;;;-2.43;98.41;97224.06;5053131;28;20503;-77
2021/01/13 07:53:10;;;;;;;18.38;6.78;;;;;;;-2.36;97.83;97222.97;5053672;28;20127;-76
2021/01/13 07:55:43;;;;;;;20.17;7.13;;;;;;;-2.38;96.06;97225.59;5052719;28;20438;-76
2021/01/13 07:58:20;;;;;;;16.55;7.30;;;;;;;-2.16;96.57;97240.25;5053295;28;20059;-77
2021/01/13 08:00:59;;;;;;;15.73;6.25;;;;;;;-2.20;97.09;97239.50;5052950;28;20045;-78
2021/01/13 08:04:10;;;;;;;12.45;5.70;;;;;;;-2.18;94.75;97240.31;5052863;28;20415;-78
2021/01/13 08:06:47;;;;;;;15.05;6.03;;;;;;;-2.01;96.21;97249.16;5053416;28;20143;-78
2021/01/13 08:09:22;;;;;;;22.27;6.75;;;;;;;-2.06;94.88;97249.31;5052854;28;20102;-79
2021/01/13 08:12:08;;;;;;;15.25;6.95;;;;;;;-1.97;94.35;97255.88;5035864;28;20052;-78
2021/01/13 08:15:13;;;;;;;13.60;6.45;;;;;;;-2.01;96.35;97262.00;5052960;28;20059;-77
2021/01/13 08:18:10;;;;;;;23.67;8.25;;;;;;;-2.17;96.20;97257.38;5051418;28;20063;-78
2021/01/13 08:20:52;;;;;;;25.90;9.85;;;;;;;-2.14;97.96;97255.63;5052385;28;20053;-79
2021/01/13 08:23:26;;;;;;;;;;;;;;;-2.08;97.79;97258.81;5035752;28;20048;-79
2021/01/13 08:25:57;;;;;;;17.38;6.75;;;;;;;-2.01;95.61;97264.56;5052945;28;20291;-77
2021/01/13 08:28:24;;;;;;;21.13;8.93;;;;;;;-1.91;96.85;97254.81;5055229;28;20054;-78
2021/01/13 08:30:52;;;;;;;19.13;9.57;;;;;;;-1.74;97.38;97251.66;5053160;28;20059;-79
2021/01/13 08:33:23;;;;;;;22.85;9.45;;;;;;;-1.47;94.95;97265.22;5052683;28;20044;-77
2021/01/13 08:35:57;;;;;;;20.13;9.52;;;;;;;-1.36;94.20;97262.25;5053365;28;20099;-77
2021/01/13 08:38:24;;;;;;;19.88;8.90;;;;;;;-1.39;91.96;97257.25;5052997;28;20045;-77
2021/01/13 08:40:51;;;;;;;23.67;10.68;;;;;;;-1.37;92.34;97245.19;5055668;28;20510;-77
2021/01/13 08:43:18;;;;;;;24.30;10.88;;;;;;;-1.29;94.91;97243.97;5039234;28;20135;-78
2021/01/13 08:45:46;;;;;;;25.02;9.88;;;;;;;-1.14;93.68;97257.19;5057859;28;20049;-77
2021/01/13 08:48:14;;;;;;;27.67;10.20;;;;;;;-1.25;92.69;97260.16;5055966;28;20055;-79
2021/01/13 08:51:02;;;;;;;24.23;10.88;;;;;;;-1.31;94.87;97260.38;5056606;28;20045;-79
2021/01/13 08:53:29;;;;;;;19.63;8.90;;;;;;;-1.36;94.82;97262.25;5039709;28;20047;-79
2021/01/13 08:55:55;;;;;;;27.15;11.23;;;;;;;-1.40;94.17;97264.13;5056976;28;20059;-79
2021/01/13 08:58:35;;;;;;;28.35;11.07;;;;;;;-1.43;95.58;97261.66;5056197;28;20052;-80
2021/01/13 09:01:08;;;;;;;24.92;10.55;;;;;;;-1.60;96.21;97246.84;5055867;28;20445;-79
2021/01/13 09:03:39;;;;;;;27.02;11.55;;;;;;;-1.59;96.13;97269.09;5056006;28;20461;-78
2021/01/13 09:06:38;;;;;;;27.45;11.80;;;;;;;-1.66;97.94;97271.03;5056185;28;20132;-79
2021/01/13 09:09:11;;;;;;;28.02;12.90;;;;;;;-1.69;98.92;97267.75;5012200;28;20480;-79
2021/01/13 09:11:39;;;;;;;24.40;11.50;;;;;;;-1.60;97.97;97274.31;5058751;28;20048;-79
2021/01/13 09:14:22;;;;;;;27.48;11.57;;;;;;;-1.52;98.18;97277.41;5060383;28;20539;-78
2021/01/13 09:16:56;;;;;;;24.83;10.88;;;;;;;-1.44;97.15;97267.69;5055937;28;20061;-78
2021/01/13 09:19:31;;;;;;;21.80;10.65;;;;;;;-1.41;97.66;97269.31;5037708;28;20060;-78
2021/01/13 09:22:13;;;;;;;29.88;12.07;;;;;;;-1.36;96.93;97270.84;5055581;28;20488;-77
2021/01/13 09:24:42;;;;;;;32.75;12.15;;;;;;;-1.48;98.14;97272.13;5055781;28;20532;-77
2021/01/13 09:27:11;;;;;;;35.25;13.68;;;;;;;-1.46;96.87;97269.50;5055819;28;20048;-78
2021/01/13 09:29:47;;;;;;;33.47;14.00;;;;;;;-1.56;97.84;97260.44;5055924;28;20090;-78
2021/01/13 09:32:16;;;;;;;32.95;13.68;;;;;;;-1.55;98.62;97268.09;5055640;28;20064;-74
2021/01/13 09:34:51;;;;;;;27.85;11.40;;;;;;;-1.59;98.16;97266.53;5055690;28;20484;-78
2021/01/13 09:37:20;;;;;;;34.15;13.55;;;;;;;-1.42;96.88;97265.06;5055255;28;20041;-76
2021/01/13 09:40:03;;;;;;;28.55;12.45;;;;;;;-1.50;97.28;97258.50;5055117;28;20480;-77
2021/01/13 09:42:45;;;;;;;35.25;15.02;;;;;;;-1.51;99.00;97254.22;5055761;28;20461;-76
2021/01/13 09:45:12;;;;;;;33.22;12.90;;;;;;;-1.50;98.19;97255.91;5056193;28;20427;-75
2021/01/13 09:47:39;;;;;;;29.98;12.65;;;;;;;-1.54;97.75;97262.06;5055640;28;20491;-76
2021/01/13 09:50:10;;;;;;;28.48;10.40;;;;;;;-1.49;97.16;97251.59;5055374;28;20045;-77
2021/01/13 09:52:44;;;;;;;30.25;11.98;;;;;;;-1.37;96.09;97247.75;5036960;28;20057;-76
2021/01/13 09:55:11;;;;;;;34.25;12.77;;;;;;;-1.46;95.53;97244.63;5038144;28;20041;-76
2021/01/13 09:57:39;;;;;;;23.55;10.00;;;;;;;-1.42;97.07;97242.78;5055057;28;20074;-76
2021/01/13 10:00:11;;;;;;;25.10;11.00;;;;;;;-1.36;95.77;97251.97;5037512;28;20072;-78
2021/01/13 10:02:38;;;;;;;22.00;9.57;;;;;;;-1.35;95.70;97256.25;5055412;28;20053;-79
2021/01/13 10:05:06;;;;;;;27.15;11.25;;;;;;;-1.41;96.75;97238.47;5055572;28;20107;-75
2021/01/13 10:07:35;;;;;;;33.38;12.35;;;;;;;-1.43;97.20;97245.41;5054668;28;20057;-78
2021/01/13 10:10:07;;;;;;;22.40;9.05;;;;;;;-1.44;94.60;97249.69;5054547;28;20049;-79
2021/01/13 10:12:39;;;;;;;25.37;10.83;;;;;;;-1.35;95.20;97238.25;5054884;28;20447;-79
2021/01/13 10:15:13;;;;;;;28.33;9.90;;;;;;;-1.22;93.81;97251.47;5054108;28;20075;-76
2021/01/13 10:17:42;;;;;;;25.23;9.95;;;;;;;-1.27;96.40;97246.50;5037346;28;20048;-77
2021/01/13 10:20:15;;;;;;;26.77;9.77;;;;;;;-1.34;95.69;97247.66;5036873;28;20136;-77
2021/01/13 10:22:44;;;;;;;24.08;10.15;;;;;;;-1.42;95.66;97242.78;5055077;28;20575;-81
2021/01/13 10:25:11;;;;;;;24.58;10.60;;;;;;;-1.44;96.45;97239.41;5036882;28;20049;-77
2021/01/13 10:27:42;;;;;;;23.55;9.75;;;;;;;-1.43;96.01;97245.41;5055117;28;20045;-77
2021/01/13 10:30:10;;;;;;;22.88;9.50;;;;;;;-1.42;95.27;97247.94;5054791;28;20045;-77
2021/01/13 10:32:54;;;;;;;21.98;9.95;;;;;;;-1.43;96.23;97253.13;5055059;28;20048;-78
2021/01/13 10:35:23;;;;;;;27.63;10.32;;;;;;;-1.47;95.51;97260.94;5003330;28;20060;-74
2021/01/13 10:37:55;;;;;;;22.17;9.48;;;;;;;-1.43;95.20;97251.38;5053826;28;20056;-75
2021/01/13 10:40:24;;;;;;;23.73;8.85;;;;;;;-1.40;95.03;97251.28;5054364;28;20045;-74
2021/01/13 10:42:54;;;;;;;19.25;9.70;;;;;;;-1.45;96.90;97248.88;5054021;28;20143;-75
2021/01/13 10:45:23;;;;;;;27.42;10.35;;;;;;;-1.48;98.20;97246.41;5053649;28;20075;-75
2021/01/13 10:48:02;;;;;;;30.60;11.40;;;;;;;-1.36;97.77;97247.69;5053792;28;20041;-76
2021/01/13 10:50:31;;;;;;;30.60;10.32;;;;;;;-1.32;97.89;97238.97;5054079;28;20045;-76
2021/01/13 10:53:00;;;;;;;31.23;11.60;;;;;;;-1.30;98.03;97246.63;5054075;28;20045;-74
2021/01/13 10:55:33;;;;;;;26.88;11.18;;;;;;;-1.41;98.64;97236.72;5053657;28;20171;-76
2021/01/13 10:58:02;;;;;;;29.90;13.00;;;;;;;-1.40;99.89;97237.59;5054092;28;20487;-76
2021/01/13 11:00:29;;;;;;;36.08;12.93;;;;;;;-1.52;100.00;97231.97;5053644;28;20041;-76
2021/01/13 11:02:58;;;;;;;27.52;11.23;;;;;;;-1.52;100.00;97224.28;5054068;28;20048;-76
2021/01/13 11:05:26;;;;;;;23.02;10.68;;;;;;;-1.50;100.00;97235.34;5035980;28;20502;-75
2021/01/13 11:07:56;;;;;;;25.48;12.00;;;;;;;-1.48;100.00;97235.31;5053553;28;20053;-75
2021/01/13 11:10:23;;;;;;;25.92;11.55;;;;;;;-1.51;100.00;97233.66;5053348;28;20115;-73
2021/01/13 11:13:01;;;;;;;26.05;12.52;;;;;;;-1.54;100.00;97228.66;5053204;28;20048;-74
2021/01/13 11:15:27;;;;;;;25.45;12.07;;;;;;;-1.72;100.00;97219.03;5035937;28;20485;-74
2021/01/13 11:17:57;;;;;;;26.05;13.13;;;;;;;-1.72;100.00;97219.03;5053191;28;20040;-74
2021/01/13 11:20:33;;;;;;;28.98;13.88;;;;;;;-1.56;100.00;97214.16;5053827;28;20484;-74
2021/01/13 11:23:03;;;;;;;34.53;15.35;;;;;;;-1.53;100.00;97220.03;5035601;28;20500;-74
2021/01/13 11:25:39;;;;;;;37.78;16.60;;;;;;;-1.50;100.00;97209.66;5053968;28;20387;-75
2021/01/13 11:28:14;;;;;;;38.42;17.88;;;;;;;-1.57;100.00;97195.34;5053422;28;20071;-73
2021/01/13 11:30:45;;;;;;;40.08;18.95;;;;;;;-1.56;100.00;97202.16;5053539;28;20095;-71
2021/01/13 11:33:16;;;;;;;36.65;18.88;;;;;;;-1.55;100.00;97206.41;5052992;28;20056;-72
2021/01/13 11:35:48;;;;;;;37.28;19.88;;;;;;;-1.54;100.00;97202.94;5056884;28;20107;-73
2021/01/13 11:38:42;;;;;;;37.85;18.27;;;;;;;-1.56;100.00;97199.59;5054357;28;20045;-73
2021/01/13 11:41:49;;;;;;;43.05;24.15;;;;;;;-1.43;100.00;97194.00;5053870;28;20051;-72
2021/01/13 11:44:55;;;;;;;42.70;22.73;;;;;;;-1.48;100.00;97196.75;5052533;28;20135;-73
2021/01/13 11:47:27;;;;;;;51.88;26.50;;;;;;;-1.25;100.00;97193.28;5053717;28;20067;-71
2021/01/13 11:49:59;;;;;;;42.85;23.50;;;;;;;-1.32;100.00;97197.00;5035984;28;20052;-74
2021/01/13 11:52:33;;;;;;;47.72;24.75;;;;;;;-1.32;100.00;97182.38;5035363;28;20049;-72